首页
METAR-TAF:

METAR-TAF

机场 :

成田国际机场

东京 / 成田国际机场, 日本

纬度: 35-46N, 经度: 140-23E, 海拔: 41米

当前天气观测

该预报发布于21分钟前的17:30 UTC
风速2节,风向西
温度 8°C
湿度 93%
气压 1018 hPa
能见度10公里或以上
少量云层高于3000英尺

METAR: RJAA 171730Z 28002KT 9999 FEW030 08/07 Q1018 NOSIG RMK 1CU030 A3007

时间: 02:51 (17:51 UTC)

预报

该预报发布于46分钟前的17:05 UTC
预报有效从17日的 18点(UTC)到 19日的 00点(UTC)
风速5节,风向北转西北
能见度10公里或以上
少量云层高于3000英尺
成为
从 17日的 22点(UTC)到 18日的 00点(UTC)
风速10节,风向东北
成为
从 18日的 18点(UTC)到 18日的 21点(UTC)
风速5节,风向北转西北
少量云层高于500英尺
多云层高于900英尺
短暂存在
从 18日的 18点(UTC)到 19日的 00点(UTC)
能見度: 3500
少量云层高于300英尺
多云层高于500英尺
雨, 轻雾

TAF: RJAA 171705Z 1718/1900 34005KT 9999 FEW030 BECMG 1722/1800 04010KT BECMG 1818/1821 34005KT FEW005 BKN009 TEMPO 1818/1900 3500 RA BR FEW003 BKN005

超过4000个机场的气象观测和天气预报(METAR&TAF报告)。

可查询的气象台以黄色和红色小点在地图上表示。

将鼠标移到小点上方,可查看气象台名称。

然后点击查看天气观测和预报。

如需切换地图:点击带黑十字的绿色按钮放大地图;点击带横线的绿色按钮缩小地图;或者点击绿色箭头查看邻近地区的地图。


METAR-TAF: